Time;durP1;ratioP1;P1;durP2;ratioP2;P2;SDS_P1;SDS_P2;PMS_P1;PMS_P2;Temp;Humidity;BMP_temperature;BMP_pressure;BME280_temperature;BME280_humidity;BME280_pressure;Samples;Min_cycle;Max_cycle;Signal;HPM_P1;HPM_P2
2022/03/17 00:00:08;;;;;;;;;;;7.70;99.90;;;7.18;100.00;97724.50;4995646;28;19960;-83
2022/03/17 00:02:35;;;;;;;;;;;7.80;99.90;;;7.01;100.00;97686.28;4987867;28;19976;-83
2022/03/17 00:05:00;;;;;;;;;;;7.70;99.90;;;7.11;100.00;97722.88;5004095;28;19949;-83
2022/03/17 00:07:26;;;;;;;;;;;7.70;99.90;;;7.14;100.00;97722.78;4988102;28;19913;-83
2022/03/17 00:09:52;;;;;;;;;;;7.70;99.90;;;7.12;100.00;97729.81;5003914;28;19971;-83
2022/03/17 00:12:18;;;;;;;;;;;7.80;99.90;;;7.03;100.00;97725.59;4985754;28;19921;-83
2022/03/17 00:14:44;;;;;;;;;;;7.70;99.90;;;6.98;100.00;97723.09;5003196;28;19917;-83
2022/03/17 00:17:09;;;;;;;;;;;7.70;99.90;;;6.98;100.00;97709.09;4990646;28;19917;-85
2022/03/17 00:19:36;;;;;;;;;;;7.70;99.90;;;7.12;99.97;97727.22;4971825;28;20403;-83
2022/03/17 00:22:04;;;;;;;;;;;7.70;99.90;;;6.94;100.00;97707.41;4988709;28;20016;-83
2022/03/17 00:24:31;;;;;;;;;;;7.60;99.90;;;6.85;100.00;97708.44;4997009;28;20663;-87
2022/03/17 00:26:56;;;;;;;;;;;7.70;99.90;;;6.81;100.00;97718.09;5003009;28;19930;-83
2022/03/17 00:29:22;;;;;;;;;;;7.60;99.90;;;6.94;100.00;97733.63;5013674;28;19936;-83
2022/03/17 00:31:47;;;;;;;;;;;7.60;99.90;;;6.93;100.00;97748.50;4997543;28;19917;-83
2022/03/17 00:34:13;;;;;;;;;;;7.60;99.90;;;6.87;100.00;97732.88;4981214;28;20367;-83
2022/03/17 00:36:39;;;;;;;;;;;7.50;99.90;;;6.84;100.00;97735.56;4982293;28;19928;-84
2022/03/17 00:39:05;;;;;;;;;;;7.50;99.90;;;6.53;100.00;97691.47;4984961;28;19917;-85
2022/03/17 00:41:31;;;;;;;;;;;7.50;99.90;;;6.88;100.00;97747.72;5000787;28;19960;-83
2022/03/17 00:43:57;;;;;;;;;;;7.50;99.90;;;6.81;100.00;97748.72;5015638;28;19923;-83
2022/03/17 00:46:23;;;;;;;;;;;7.40;99.90;;;6.77;100.00;97740.03;5021957;28;19952;-83
2022/03/17 00:48:48;;;;;;;;;;;7.40;99.90;;;6.77;100.00;97744.41;5015241;28;19928;-83
2022/03/17 00:51:15;;;;;;;;;;;7.40;99.90;;;6.69;100.00;97739.28;4998548;28;19920;-83
2022/03/17 00:53:41;;;;;;;;;;;7.40;99.90;;;6.65;100.00;97732.38;5004144;28;19920;-84
2022/03/17 00:56:07;;;;;;;;;;;7.40;99.90;;;6.64;100.00;97721.03;5012561;28;19914;-85
2022/03/17 00:58:33;;;;;;;;;;;7.30;99.90;;;6.64;100.00;97717.50;5014633;28;19925;-83
2022/03/17 01:00:58;;;;;;;;;;;7.30;99.90;;;6.70;100.00;97725.28;5014599;28;19925;-83
2022/03/17 01:03:24;;;;;;;;;;;7.30;99.90;;;6.62;100.00;97720.19;5023075;28;19917;-83
2022/03/17 01:05:51;;;;;;;;;;;7.30;99.90;;;6.68;100.00;97735.78;5015544;28;20379;-86
2022/03/17 01:08:17;;;;;;;;;;;7.30;99.90;;;6.63;100.00;97721.03;5020206;28;19914;-83
2022/03/17 01:10:43;;;;;;;;;;;7.30;99.90;;;6.57;100.00;97710.63;5005611;28;20371;-83
2022/03/17 01:13:08;;;;;;;;;;;7.30;99.90;;;6.71;100.00;97742.72;4997667;28;19944;-83
2022/03/17 01:15:34;;;;;;;;;;;7.30;99.90;;;6.64;100.00;97736.75;4997469;28;20020;-83
2022/03/17 01:18:00;;;;;;;;;;;7.30;99.90;;;6.68;100.00;97729.69;5019097;28;19917;-84
2022/03/17 01:20:25;;;;;;;;;;;7.30;99.90;;;6.66;100.00;97732.34;4976876;28;19921;-83
2022/03/17 01:22:51;;;;;;;;;;;7.30;99.90;;;6.64;100.00;97733.25;5012767;28;20260;-83
2022/03/17 01:25:16;;;;;;;;;;;7.30;99.90;;;6.63;100.00;97729.75;5002996;28;19913;-84
2022/03/17 01:27:42;;;;;;;;;;;7.20;99.90;;;6.51;100.00;97716.84;4994882;28;20299;-83
2022/03/17 01:30:09;;;;;;;;;;;7.20;99.90;;;6.46;100.00;97705.56;4981250;28;19917;-84
2022/03/17 01:32:37;;;;;;;;;;;7.20;99.90;;;6.43;100.00;97705.63;5013613;28;19924;-83
2022/03/17 01:35:05;;;;;;;;;;;7.20;99.90;;;6.54;100.00;97721.19;5014755;28;19921;-83
2022/03/17 01:37:31;;;;;;;;;;;7.10;99.90;;;6.49;100.00;97718.63;5003821;28;20024;-83
2022/03/17 01:39:56;;;;;;;;;;;7.10;99.90;;;6.37;100.00;97708.34;4995609;28;20303;-86
2022/03/17 01:42:22;;;;;;;;;;;7.20;99.90;;;6.39;100.00;97714.41;4988298;28;19917;-84
2022/03/17 01:44:48;;;;;;;;;;;7.10;99.90;;;6.32;100.00;97695.31;5011003;28;19921;-84
2022/03/17 01:47:29;;;;;;;;;;;7.10;99.90;;;6.41;100.00;97720.53;4993991;28;20406;-83
2022/03/17 01:50:07;;;;;;;;;;;7.10;99.90;;;6.40;100.00;97716.16;4995750;28;19944;-83
2022/03/17 01:52:33;;;;;;;;;;;7.10;99.90;;;6.46;100.00;97721.28;5008363;28;20035;-83
2022/03/17 01:54:59;;;;;;;;;;;7.10;99.90;;;6.39;100.00;97706.56;4996871;28;20012;-84
2022/03/17 01:57:24;;;;;;;;;;;7.10;99.90;;;6.40;100.00;97714.41;4977296;28;20009;-83
2022/03/17 01:59:51;;;;;;;;;;;7.10;99.90;;;6.49;100.00;97731.72;4997312;28;20005;-83
2022/03/17 02:02:17;;;;;;;;;;;7.10;99.90;;;6.46;100.00;97730.03;4988992;28;19929;-84
2022/03/17 02:04:43;;;;;;;;;;;7.10;99.90;;;6.41;100.00;97729.25;4996002;28;19919;-83
2022/03/17 02:07:11;;;;;;;;;;;7.10;99.90;;;6.41;100.00;97725.75;4992166;28;19921;-85
2022/03/17 02:09:37;;;;;;;;;;;7.10;99.90;;;6.31;100.00;97707.53;4990200;28;19928;-83
2022/03/17 02:14:58;;;;;;;;;;;7.10;99.90;;;6.46;100.00;97737.00;5010784;28;19928;-83
2022/03/17 02:17:25;;;;;;;;;;;7.10;99.90;;;6.50;100.00;97741.34;5005916;28;20375;-83
2022/03/17 02:19:51;;;;;;;;;;;7.10;99.90;;;6.39;100.00;97723.16;5005453;28;19917;-83
2022/03/17 02:22:19;;;;;;;;;;;7.10;99.90;;;6.48;100.00;97746.59;5004963;28;20012;-83
2022/03/17 02:27:33;;;;;;;;;;;7.10;99.90;;;6.46;100.00;97739.63;5001994;28;19940;-83
2022/03/17 02:29:59;;;;;;;;;;;7.10;99.90;;;6.36;100.00;97719.72;5002079;28;20379;-83
2022/03/17 02:32:26;;;;;;;;;;;7.10;99.90;;;6.44;100.00;97725.69;4986797;28;19920;-83
2022/03/17 02:34:52;;;;;;;;;;;7.10;99.90;;;6.10;100.00;97681.66;5006879;28;19913;-83
2022/03/17 02:37:18;;;;;;;;;;;7.10;99.90;;;6.48;100.00;97730.88;4995585;28;19919;-83
2022/03/17 02:39:44;;;;;;;;;;;7.20;99.90;;;6.57;100.00;97744.72;4976999;28;19928;-85
2022/03/17 02:42:13;;;;;;;;;;;7.20;99.90;;;6.62;100.00;97746.38;4978019;28;19917;-83
2022/03/17 02:44:39;;;;;;;;;;;7.30;99.90;;;6.70;100.00;97756.75;5004091;28;20413;-84
2022/03/17 02:47:05;;;;;;;;;;;7.30;99.90;;;6.75;100.00;97757.53;5017163;28;19932;-87
2022/03/17 02:49:31;;;;;;;;;;;7.30;99.90;;;6.76;100.00;97750.53;4999912;28;19924;-83
2022/03/17 02:51:57;;;;;;;;;;;7.30;99.90;;;6.75;100.00;97756.66;4980139;28;19924;-83
2022/03/17 02:54:23;;;;;;;;;;;7.30;99.90;;;6.71;100.00;97745.34;4994330;28;19913;-84
2022/03/17 02:56:48;;;;;;;;;;;7.30;99.90;;;6.67;100.00;97743.69;5014632;28;19913;-83
2022/03/17 02:59:14;;;;;;;;;;;7.30;99.90;;;6.59;100.00;97735.94;5011732;28;19921;-83
2022/03/17 03:01:40;;;;;;;;;;;7.30;99.90;;;6.69;100.00;97755.88;4999018;28;20358;-84
2022/03/17 03:04:06;;;;;;;;;;;7.30;99.90;;;6.60;100.00;97729.78;4994413;28;19917;-83
2022/03/17 03:06:31;;;;;;;;;;;7.30;99.90;;;6.54;100.00;97723.81;5009116;28;20314;-83
2022/03/17 03:08:58;;;;;;;;;;;7.30;99.90;;;6.62;100.00;97733.28;4978692;28;19924;-83
2022/03/17 03:11:24;;;;;;;;;;;7.30;99.90;;;6.61;100.00;97736.78;4991375;28;19939;-83
2022/03/17 03:13:50;;;;;;;;;;;7.30;99.90;;;6.71;100.00;97752.38;5000578;28;20009;-83
2022/03/17 03:16:15;;;;;;;;;;;7.30;99.90;;;6.69;100.00;97745.41;5010764;28;20252;-83
2022/03/17 03:18:41;;;;;;;;;;;7.30;99.90;;;6.65;100.00;97743.69;5010708;28;19913;-83
2022/03/17 03:21:07;;;;;;;;;;;7.30;99.90;;;6.79;100.00;97751.34;4993926;28;19913;-83
2022/03/17 03:23:33;;;;;;;;;;;7.40;99.90;;;6.56;100.00;97708.94;5013313;28;19933;-83
2022/03/17 03:25:59;;;;;;;;;;;7.40;99.90;;;6.78;100.00;97740.88;4987080;28;20370;-84
2022/03/17 03:28:25;;;;;;;;;;;7.40;99.90;;;6.71;100.00;97737.50;5006886;28;19945;-83
2022/03/17 03:30:51;;;;;;;;;;;7.40;99.90;;;6.87;100.00;97751.22;5011421;28;19933;-83
2022/03/17 03:33:17;;;;;;;;;;;7.50;99.90;;;6.74;100.00;97744.47;4994202;28;19917;-85
2022/03/17 03:38:37;;;;;;;;;;;7.50;99.90;;;6.79;100.00;97758.38;4992842;28;20021;-83
2022/03/17 03:41:03;;;;;;;;;;;7.40;99.90;;;6.80;100.00;97768.81;5015148;28;19984;-83
2022/03/17 03:43:28;;;;;;;;;;;7.40;99.90;;;6.80;100.00;97765.31;4998687;28;20446;-83
2022/03/17 03:45:54;;;;;;;;;;;7.40;99.90;;;6.85;100.00;97771.34;4990183;28;19913;-83
2022/03/17 03:48:20;;;;;;;;;;;7.40;99.90;;;6.79;100.00;97767.09;4994402;28;19949;-83
2022/03/17 03:50:46;;;;;;;;;;;7.40;99.90;;;6.72;100.00;97751.47;4991466;28;20000;-83
2022/03/17 03:53:12;;;;;;;;;;;7.40;99.90;;;6.77;100.00;97762.78;4989392;28;19914;-84
2022/03/17 03:55:37;;;;;;;;;;;7.40;99.90;;;6.79;100.00;97772.31;5011272;28;19928;-82
2022/03/17 03:58:03;;;;;;;;;;;7.40;99.90;;;6.80;100.00;97779.31;4992514;28;19920;-83
2022/03/17 04:02:55;;;;;;;;;;;7.40;99.90;;;6.68;100.00;97769.88;4993353;28;19948;-83
2022/03/17 04:05:29;;;;;;;;;;;7.40;99.90;;;6.73;100.00;97787.28;5008653;28;19968;-83
2022/03/17 04:07:56;;;;;;;;;;;7.40;99.90;;;6.69;100.00;97782.09;5008782;28;19924;-83
2022/03/17 04:10:26;;;;;;;;;;;7.40;99.90;;;6.79;100.00;97797.69;4993904;28;20338;-82
2022/03/17 04:12:51;;;;;;;;;;;7.40;99.90;;;6.65;100.00;97776.91;5013387;28;19921;-84
2022/03/17 04:15:17;;;;;;;;;;;7.40;99.90;;;6.75;100.00;97798.59;4994083;28;20897;-83
2022/03/17 04:17:43;;;;;;;;;;;7.30;99.90;;;6.73;100.00;97798.66;4991224;28;19957;-84
2022/03/17 04:20:09;;;;;;;;;;;7.30;99.90;;;6.61;100.00;97783.09;4992733;28;19922;-83
2022/03/17 04:22:35;;;;;;;;;;;7.30;99.90;;;6.59;100.00;97796.22;4993535;28;19921;-83
2022/03/17 04:25:01;;;;;;;;;;;7.30;99.90;;;6.45;100.00;97782.47;4991720;28;19925;-83
2022/03/17 04:27:26;;;;;;;;;;;7.30;99.90;;;6.37;100.00;97776.44;5016287;28;19944;-82
2022/03/17 04:29:52;;;;;;;;;;;7.20;99.90;;;6.54;100.00;97797.19;4977058;28;19913;-83
2022/03/17 04:32:18;;;;;;;;;;;7.20;99.90;;;6.55;100.00;97805.03;5018014;28;19917;-82
2022/03/17 04:34:43;;;;;;;;;;;7.30;99.90;;;6.52;100.00;97804.22;4978171;28;19924;-83
2022/03/17 04:37:09;;;;;;;;;;;7.20;99.90;;;6.58;100.00;97812.81;4989790;28;19936;-83
2022/03/17 04:39:34;;;;;;;;;;;7.20;99.90;;;6.62;100.00;97811.91;4990533;28;19960;-81
2022/03/17 04:42:00;;;;;;;;;;;7.20;99.90;;;6.62;100.00;97832.00;5000908;28;19921;-82
2022/03/17 04:44:26;;;;;;;;;;;7.30;99.90;;;6.67;100.00;97833.66;4995282;28;19909;-83
2022/03/17 04:46:51;;;;;;;;;;;7.30;99.90;;;6.65;100.00;97827.56;5002289;28;19914;-83
2022/03/17 04:49:17;;;;;;;;;;;7.30;99.90;;;6.56;100.00;97811.97;4978317;28;19917;-83
2022/03/17 04:51:43;;;;;;;;;;;7.30;99.90;;;6.59;100.00;97806.72;5009142;28;20015;-83
2022/03/17 04:54:08;;;;;;;;;;;7.30;99.90;;;6.49;100.00;97779.75;5008911;28;20020;-83
2022/03/17 04:56:34;;;;;;;;;;;7.30;99.90;;;6.75;100.00;97843.16;4978750;28;19918;-83
2022/03/17 04:59:00;;;;;;;;;;;7.30;99.90;;;6.66;100.00;97815.34;4975389;28;19920;-83
2022/03/17 05:01:25;;;;;;;;;;;7.30;99.90;;;6.67;100.00;97827.56;5007083;28;20331;-83
2022/03/17 05:03:51;;;;;;;;;;;7.40;99.90;;;6.72;100.00;97837.97;5016337;28;20008;-82
2022/03/17 05:06:17;;;;;;;;;;;7.30;99.90;;;6.66;100.00;97825.84;5023220;28;19928;-85
2022/03/17 05:08:43;;;;;;;;;;;7.30;99.90;;;6.60;100.00;97807.56;5021862;28;20061;-84
2022/03/17 05:11:09;;;;;;;;;;;7.40;99.90;;;6.78;100.00;97837.88;5012773;28;20480;-84
2022/03/17 05:13:36;;;;;;;;;;;7.40;99.90;;;6.85;100.00;97858.72;5001414;28;19956;-83
2022/03/17 05:16:06;;;;;;;;;;;7.40;99.90;;;6.80;100.00;97852.72;5018496;28;19940;-83
2022/03/17 05:18:33;;;;;;;;;;;7.40;99.90;;;6.82;100.00;97855.28;5004285;28;19921;-84
2022/03/17 05:20:58;;;;;;;;;;;7.40;99.90;;;6.71;100.00;97852.81;4996673;28;19929;-83
2022/03/17 05:23:24;;;;;;;;;;;7.40;99.90;;;6.72;100.00;97854.56;5004415;28;20291;-83
2022/03/17 05:25:50;;;;;;;;;;;7.40;99.90;;;6.78;100.00;97864.09;4999425;28;19921;-83
2022/03/17 05:28:16;;;;;;;;;;;7.40;99.90;;;6.73;100.00;97858.06;4998483;28;19909;-81
2022/03/17 05:30:43;;;;;;;;;;;7.40;99.90;;;6.56;100.00;97830.31;4999235;28;19960;-84
2022/03/17 05:33:10;;;;;;;;;;;7.30;99.90;;;6.73;100.00;97860.66;5020391;28;19914;-83
2022/03/17 05:35:37;;;;;;;;;;;7.40;99.90;;;6.77;100.00;97868.47;4981273;28;19917;-83
2022/03/17 05:38:03;;;;;;;;;;;7.40;99.90;;;6.51;100.00;97826.91;4994256;28;20363;-83
2022/03/17 05:40:28;;;;;;;;;;;7.40;99.90;;;6.69;100.00;97859.84;4998986;28;19931;-83
2022/03/17 05:42:56;;;;;;;;;;;7.30;99.90;;;6.76;100.00;97871.13;5017320;28;19917;-83
2022/03/17 05:45:27;;;;;;;;;;;7.30;99.90;;;6.78;100.00;97866.72;4995177;28;19917;-84
2022/03/17 05:47:55;;;;;;;;;;;7.40;99.90;;;6.78;100.00;97869.34;4982503;28;19928;-83
2022/03/17 05:50:24;;;;;;;;;;;7.40;99.90;;;6.75;100.00;97872.88;4999227;28;19918;-83
2022/03/17 05:52:50;;;;;;;;;;;7.40;99.90;;;6.78;100.00;97878.06;4997276;28;19913;-83
2022/03/17 05:55:19;;;;;;;;;;;7.40;99.90;;;6.84;100.00;97887.63;4997731;28;20028;-85
2022/03/17 05:57:46;;;;;;;;;;;7.40;99.90;;;6.79;100.00;97881.56;4975932;28;19928;-83
2022/03/17 06:00:16;;;;;;;;;;;7.50;99.90;;;6.64;100.00;97848.56;5011915;28;19921;-83
2022/03/17 06:02:42;;;;;;;;;;;7.40;99.90;;;6.90;100.00;97884.91;4995573;28;19933;-83
2022/03/17 06:05:09;;;;;;;;;;;7.50;99.90;;;6.95;100.00;97892.72;4998564;28;19921;-83
2022/03/17 06:07:48;;;;;;;;;;;7.50;99.90;;;6.99;100.00;97891.78;5011709;28;20118;-83
2022/03/17 06:10:15;;;;;;;;;;;7.50;99.90;;;6.98;100.00;97877.81;5011731;28;19917;-84
2022/03/17 06:12:41;;;;;;;;;;;7.50;99.90;;;7.06;100.00;97880.31;4989009;28;19913;-83
2022/03/17 06:15:07;;;;;;;;;;;7.60;99.90;;;7.09;100.00;97885.50;4994788;28;19960;-83
2022/03/17 06:17:41;;;;;;;;;;;7.60;99.90;;;7.12;100.00;97881.97;5000118;28;20012;-83
2022/03/17 06:20:09;;;;;;;;;;;7.60;99.90;;;7.06;100.00;97881.16;5011652;28;20406;-83
2022/03/17 06:22:37;;;;;;;;;;;7.70;99.90;;;7.18;99.73;97889.75;5010401;28;19922;-83
2022/03/17 06:25:02;;;;;;;;;;;7.70;99.90;;;7.12;99.72;97874.09;5009744;28;19936;-83
2022/03/17 06:27:28;;;;;;;;;;;7.80;99.90;;;7.05;99.17;97853.22;4990631;28;19921;-83
2022/03/17 06:29:54;;;;;;;;;;;7.80;99.90;;;7.35;99.45;97892.94;5007174;28;19983;-86
2022/03/17 06:32:19;;;;;;;;;;;7.90;99.90;;;7.21;99.89;97860.81;4999154;28;19980;-85
2022/03/17 06:34:45;;;;;;;;;;;8.00;99.90;;;7.27;99.52;97873.84;4991775;28;19921;-83
2022/03/17 06:37:11;;;;;;;;;;;8.00;99.90;;;7.47;98.65;97898.91;5009595;28;19928;-84
2022/03/17 06:39:36;;;;;;;;;;;8.10;99.90;;;7.42;97.91;97873.59;4974841;28;20581;-83
2022/03/17 06:42:02;;;;;;;;;;;8.10;99.90;;;7.53;97.30;97891.78;5009944;28;19920;-84
2022/03/17 06:44:28;;;;;;;;;;;8.20;99.90;;;7.58;96.21;97903.06;5008622;28;19914;-83
2022/03/17 06:46:53;;;;;;;;;;;8.20;99.90;;;7.56;96.30;97893.50;4990710;28;19947;-83
2022/03/17 06:49:19;;;;;;;;;;;8.30;99.90;;;7.69;96.22;97921.25;4993279;28;19913;-84
2022/03/17 06:51:44;;;;;;;;;;;8.30;99.90;;;7.59;96.45;97902.19;5004000;28;19960;-84
2022/03/17 06:54:10;;;;;;;;;;;8.30;99.90;;;7.44;95.87;97866.53;5012265;28;20051;-85
2022/03/17 06:56:35;;;;;;;;;;;8.40;99.90;;;7.80;95.70;97927.19;5007915;28;19921;-84
2022/03/17 06:59:01;;;;;;;;;;;8.40;99.90;;;7.97;95.31;97954.94;4975856;28;19955;-83
2022/03/17 07:01:27;;;;;;;;;;;8.50;99.90;;;7.97;94.09;97944.44;5003924;28;20465;-84
2022/03/17 07:03:52;;;;;;;;;;;8.50;99.90;;;7.82;93.82;97920.19;4979425;28;19917;-84
2022/03/17 07:06:19;;;;;;;;;;;8.60;99.90;;;8.01;94.05;97941.72;5004558;28;20295;-84
2022/03/17 07:08:45;;;;;;;;;;;8.60;99.90;;;8.03;94.37;97946.94;4972704;28;19926;-84
2022/03/17 07:11:10;;;;;;;;;;;8.70;99.90;;;8.17;94.27;97954.56;4992864;28;20330;-85
2022/03/17 07:13:36;;;;;;;;;;;8.70;99.90;;;8.12;94.35;97944.13;5004925;28;19945;-84
2022/03/17 07:16:02;;;;;;;;;;;8.70;99.90;;;8.13;94.70;97937.13;4988261;28;20004;-84
2022/03/17 07:18:28;;;;;;;;;;;8.80;99.90;;;8.36;94.71;97966.47;4984714;28;19913;-83
2022/03/17 07:20:57;;;;;;;;;;;8.90;99.90;;;8.38;94.71;97966.44;4985620;28;21841;-85
2022/03/17 07:23:23;;;;;;;;;;;9.00;99.90;;;8.45;95.01;97968.06;4983470;28;19905;-86
2022/03/17 07:25:49;;;;;;;;;;;9.00;99.90;;;8.47;94.60;97963.69;5025661;28;19960;-83
2022/03/17 07:28:15;;;;;;;;;;;9.10;99.90;;;8.48;94.33;97959.28;4993940;28;19960;-86
2022/03/17 07:30:41;;;;;;;;;;;9.10;99.90;;;8.64;94.33;97973.00;4994866;28;19914;-85
2022/03/17 07:33:06;;;;;;;;;;;9.20;99.90;;;8.55;93.86;97953.00;5008323;28;20445;-85
2022/03/17 07:35:33;;;;;;;;;;;9.30;99.90;;;8.74;93.67;97977.16;4978379;28;19968;-84
2022/03/17 07:37:59;;;;;;;;;;;9.30;99.90;;;8.82;93.28;97980.50;4979784;28;19964;-84
2022/03/17 07:40:26;;;;;;;;;;;9.40;99.90;;;8.89;93.28;97994.41;5015449;28;20378;-84
2022/03/17 07:42:52;;;;;;;;;;;9.40;99.90;;;8.86;92.54;97990.03;4994043;28;20019;-84
2022/03/17 07:45:18;;;;;;;;;;;9.40;99.90;;;8.77;92.37;97963.94;5008599;28;20366;-84
2022/03/17 07:47:47;;;;;;;;;;;9.50;99.90;;;8.87;91.92;97972.53;5009436;28;20811;-84
2022/03/17 07:50:13;;;;;;;;;;;9.50;99.90;;;8.88;91.16;97961.09;5008509;28;19925;-84
2022/03/17 07:52:39;;;;;;;;;;;9.60;99.90;;;9.15;90.84;98002.59;4993171;28;19921;-84
2022/03/17 07:55:05;;;;;;;;;;;9.60;99.90;;;9.14;89.92;98002.63;4993962;28;19920;-84
2022/03/17 07:57:31;;;;;;;;;;;9.70;99.90;;;8.94;90.01;97960.97;5004117;28;20449;-84
2022/03/17 07:59:58;;;;;;;;;;;9.70;99.90;;;9.15;89.74;97993.81;5013988;28;19921;-84
2022/03/17 08:02:23;;;;;;;;;;;9.70;99.90;;;9.08;88.76;97979.06;5008095;28;19961;-84
2022/03/17 08:04:50;;;;;;;;;;;9.70;99.90;;;9.02;89.02;97989.75;4988894;28;19948;-84
2022/03/17 08:07:16;;;;;;;;;;;9.70;99.90;;;8.98;88.12;98010.84;5011929;28;19967;-87
2022/03/17 08:09:42;;;;;;;;;;;9.60;99.90;;;8.86;88.84;97989.19;5009477;28;19917;-84
2022/03/17 08:12:08;;;;;;;;;;;9.60;99.90;;;9.07;88.95;98016.81;4989261;28;19918;-84
2022/03/17 08:14:35;;;;;;;;;;;9.60;99.90;;;9.14;88.20;98027.19;5006294;28;20330;-84
2022/03/17 08:17:00;;;;;;;;;;;9.70;99.90;;;9.08;88.43;98013.28;4971460;28;20656;-84
2022/03/17 08:19:26;;;;;;;;;;;9.70;99.90;;;9.10;88.43;97998.34;4971088;28;19917;-84
2022/03/17 08:21:52;;;;;;;;;;;9.80;99.90;;;9.20;88.02;98007.75;5001429;28;19917;-85
2022/03/17 08:24:18;;;;;;;;;;;9.80;99.90;;;9.39;87.67;98036.34;4984751;28;20056;-83
2022/03/17 08:26:44;;;;;;;;;;;9.90;99.90;;;9.45;87.35;98030.91;4973153;28;20395;-86
2022/03/17 08:29:09;;;;;;;;;;;9.90;99.90;;;9.34;87.66;97996.94;4988022;28;19920;-84
2022/03/17 08:31:35;;;;;;;;;;;10.00;99.90;;;9.59;87.28;98028.84;4970472;28;20340;-84
2022/03/17 08:34:00;;;;;;;;;;;10.10;99.90;;;9.64;87.43;98031.38;5002617;28;19921;-84
2022/03/17 08:36:26;;;;;;;;;;;10.20;99.90;;;9.67;86.42;98041.81;4984169;28;20306;-84
2022/03/17 08:38:53;;;;;;;;;;;10.20;99.90;;;9.77;86.85;98038.06;4990314;28;19928;-84
2022/03/17 08:41:19;;;;;;;;;;;10.30;99.90;;;9.89;86.80;98036.94;4987561;28;20419;-86
2022/03/17 08:43:44;;;;;;;;;;;10.30;99.90;;;9.83;86.08;98026.53;5011972;28;19921;-84
2022/03/17 08:51:39;;;;;;;;;;;10.40;99.90;;;9.84;85.51;98013.31;4995026;28;19924;-84
2022/03/17 08:54:04;;;;;;;;;;;10.50;99.90;;;9.84;84.86;98013.31;4979241;28;19917;-84
2022/03/17 08:56:32;;;;;;;;;;;10.50;99.90;;;9.86;84.51;98011.50;4991353;28;19922;-84
2022/03/17 08:58:58;;;;;;;;;;;10.50;99.90;;;10.01;84.19;98031.34;4991607;28;19943;-84
2022/03/17 09:01:24;;;;;;;;;;;10.60;99.90;;;10.02;84.38;98030.44;5004486;28;19917;-84
2022/03/17 09:03:50;;;;;;;;;;;10.60;99.90;;;10.11;83.24;98042.53;4977601;28;19918;-84
2022/03/17 09:06:15;;;;;;;;;;;10.70;99.90;;;10.22;83.50;98058.09;5018359;28;19914;-84
2022/03/17 09:08:41;;;;;;;;;;;10.70;99.90;;;10.07;83.61;98022.44;4988166;28;20387;-84
2022/03/17 09:11:07;;;;;;;;;;;10.80;99.90;;;10.24;82.54;98053.63;4995176;28;19917;-84
2022/03/17 09:13:34;;;;;;;;;;;10.80;99.90;;;10.31;83.31;98055.25;4987278;28;19918;-84
2022/03/17 09:15:59;;;;;;;;;;;10.80;99.90;;;10.40;83.08;98054.16;4981040;28;19949;-84
2022/03/17 09:18:27;;;;;;;;;;;10.90;99.90;;;10.55;82.99;98071.34;4988389;28;20001;-84
2022/03/17 09:20:53;;;;;;;;;;;11.00;99.90;;;10.63;82.56;98069.38;5005198;28;20019;-82
2022/03/17 09:23:18;;;;;;;;;;;11.00;99.90;;;10.65;81.94;98059.66;5006861;28;20203;-82
2022/03/17 09:25:44;;;;;;;;;;;11.20;99.90;;;10.75;81.18;98061.13;4997424;28;19917;-84
2022/03/17 09:28:11;;;;;;;;;;;11.20;99.90;;;10.74;81.05;98037.44;4989417;28;20287;-84
2022/03/17 09:30:36;;;;;;;;;;;11.30;99.90;;;10.85;80.54;98041.47;4988879;28;22025;-83
2022/03/17 09:33:04;;;;;;;;;;;11.40;99.90;;;11.11;80.10;98076.84;4996950;28;20088;-82
2022/03/17 09:35:30;;;;;;;;;;;11.50;99.90;;;11.08;79.52;98061.09;5006489;28;20398;-84
2022/03/17 09:37:55;;;;;;;;;;;11.60;99.90;;;11.23;78.96;98060.69;4991140;28;19924;-83
2022/03/17 09:40:21;;;;;;;;;;;11.80;99.90;;;11.16;78.24;98039.75;4989875;28;19984;-82
2022/03/17 09:42:47;;;;;;;;;;;11.80;99.90;;;11.35;77.18;98067.34;5005469;28;19913;-86
2022/03/17 09:45:13;;;;;;;;;;;11.80;99.90;;;11.41;77.25;98066.31;5028777;28;19926;-84
2022/03/17 09:47:41;;;;;;;;;;;11.90;99.90;;;11.45;76.95;98057.41;4977411;28;19946;-82
2022/03/17 09:50:09;;;;;;;;;;;11.90;99.90;;;11.55;77.07;98069.41;5008349;28;20405;-83
2022/03/17 09:52:36;;;;;;;;;;;12.00;99.90;;;11.58;77.11;98063.19;4991625;28;19928;-83
2022/03/17 09:55:03;;;;;;;;;;;12.10;99.90;;;11.64;77.11;98047.13;5007096;28;19921;-83
2022/03/17 09:57:28;;;;;;;;;;;12.20;99.90;;;11.59;76.74;98043.75;4982943;28;20064;-83
2022/03/17 09:59:56;;;;;;;;;;;12.20;99.90;;;11.82;75.31;98072.09;5009644;28;20021;-83
2022/03/17 10:02:22;;;;;;;;;;;12.30;99.90;;;11.86;74.82;98079.03;4973111;28;19913;-83
2022/03/17 10:04:48;;;;;;;;;;;12.30;99.90;;;11.88;74.37;98082.50;4990687;28;20364;-83
2022/03/17 10:07:16;;;;;;;;;;;12.40;99.90;;;11.89;74.56;98071.00;5015538;28;19971;-83
2022/03/17 10:09:43;;;;;;;;;;;12.40;99.90;;;11.94;74.26;98087.63;5000836;28;20283;-82
2022/03/17 10:12:10;;;;;;;;;;;12.40;99.90;;;11.98;74.13;98081.31;5016452;28;20310;-83
2022/03/17 10:14:37;;;;;;;;;;;12.40;99.90;;;12.07;74.11;98092.53;4992302;28;19917;-83
2022/03/17 10:17:10;;;;;;;;;;;12.50;99.90;;;12.06;73.92;98086.38;5015540;28;20287;-82
2022/03/17 10:19:36;;;;;;;;;;;12.60;99.90;;;12.05;74.01;98094.34;4991996;28;19948;-83
2022/03/17 10:22:09;;;;;;;;;;;12.60;99.90;;;11.99;75.26;98091.00;5011295;28;19922;-83
2022/03/17 10:24:36;;;;;;;;;;;12.50;99.90;;;12.15;73.11;98093.13;5013188;28;20014;-83
2022/03/17 10:27:04;;;;;;;;;;;12.50;99.90;;;12.17;73.64;98104.53;4992601;28;19924;-83
2022/03/17 10:29:29;;;;;;;;;;;12.50;99.90;;;12.08;73.41;98088.94;5013552;28;20340;-84
2022/03/17 10:32:03;;;;;;;;;;;12.60;99.90;;;12.23;72.40;98109.63;4992156;28;20008;-83
2022/03/17 10:34:36;;;;;;;;;;;12.60;99.90;;;11.57;73.28;98020.00;5008530;28;20310;-83
2022/03/17 10:37:13;;;;;;;;;;;12.60;99.90;;;11.99;73.20;98077.78;5015248;28;20482;-82
2022/03/17 10:39:44;;;;;;;;;;;12.60;99.90;;;12.23;73.45;98109.63;5009235;28;20669;-83
2022/03/17 10:42:13;;;;;;;;;;;12.70;99.90;;;12.33;73.60;98121.66;5006864;28;19919;-83
2022/03/17 10:44:40;;;;;;;;;;;12.70;99.90;;;12.26;73.27;98117.47;4966369;28;19917;-83
2022/03/17 10:47:06;;;;;;;;;;;12.80;99.90;;;12.35;73.64;98111.88;4993162;28;19921;-83
2022/03/17 10:49:33;;;;;;;;;;;12.80;99.90;;;12.47;73.70;98115.03;5008084;28;19955;-83
2022/03/17 10:51:59;;;;;;;;;;;12.90;99.90;;;12.46;74.95;98115.94;5009261;28;19940;-82
2022/03/17 10:54:24;;;;;;;;;;;13.00;99.90;;;12.34;76.03;98112.78;4972778;28;20351;-82
2022/03/17 10:56:59;;;;;;;;;;;13.00;99.90;;;12.48;76.84;98124.69;4987681;28;20355;-82
2022/03/17 10:59:39;;;;;;;;;;;13.00;99.90;;;12.45;77.07;98130.09;5006589;28;19909;-83
2022/03/17 11:02:08;;;;;;;;;;;13.00;99.90;;;12.42;76.34;98131.06;4988549;28;20315;-84
2022/03/17 11:04:38;;;;;;;;;;;13.00;99.90;;;12.27;77.27;98129.75;4995881;28;19933;-82
2022/03/17 11:07:11;;;;;;;;;;;12.90;99.90;;;12.31;76.47;98110.25;5010942;28;19917;-82
2022/03/17 11:09:39;;;;;;;;;;;12.90;99.90;;;12.06;77.98;98127.78;4993316;28;20297;-83
2022/03/17 11:12:07;;;;;;;;;;;12.80;99.90;;;11.90;78.97;98133.56;4997977;28;20090;-83
2022/03/17 11:14:33;;;;;;;;;;;12.60;99.90;;;11.92;78.48;98110.59;5012584;28;19967;-85
2022/03/17 11:17:02;;;;;;;;;;;12.60;99.90;;;11.36;80.45;98084.94;4992577;28;19917;-83
2022/03/17 11:19:28;;;;;;;;;;;12.40;99.90;;;11.69;82.90;98157.97;4994529;28;20080;-83
2022/03/17 11:22:09;;;;;;;;;;;12.30;99.90;;;11.72;80.54;98127.03;5009227;28;19917;-83
2022/03/17 11:24:37;;;;;;;;;;;12.30;99.90;;;11.66;83.36;98129.84;5012355;28;19986;-83
2022/03/17 11:27:10;;;;;;;;;;;12.20;99.90;;;11.65;84.18;98141.34;5008533;28;19917;-83
2022/03/17 11:29:47;;;;;;;;;;;12.20;99.90;;;11.39;85.56;98139.44;4994303;28;19951;-83
2022/03/17 11:32:29;;;;;;;;;;;12.00;99.90;;;11.28;85.62;98151.16;4995277;28;20015;-84
2022/03/17 11:35:17;;;;;;;;;;;12.00;99.90;;;11.19;87.02;98156.69;5007714;28;19920;-84
2022/03/17 11:37:43;;;;;;;;;;;11.80;99.90;;;11.01;87.60;98139.59;4992480;28;20314;-83